createdAt,value
2023-02-19T00:01:31.552Z,6.45
2023-02-19T00:03:59.213Z,6.42
2023-02-19T00:06:26.876Z,6.38
2023-02-19T00:08:54.536Z,6.36
2023-02-19T00:11:22.304Z,6.36
2023-02-19T00:13:50.067Z,6.31
2023-02-19T00:16:17.837Z,6.25
2023-02-19T00:18:45.592Z,6.21
2023-02-19T00:21:13.274Z,6.17
2023-02-19T00:23:41.028Z,6.14
2023-02-19T00:26:17.678Z,6.05
2023-02-19T00:28:46.171Z,5.98
2023-02-19T00:31:14.284Z,5.94
2023-02-19T00:33:42.216Z,5.95
2023-02-19T00:36:09.978Z,5.94
2023-02-19T00:38:37.953Z,5.91
2023-02-19T00:41:25.901Z,5.85
2023-02-19T00:43:53.649Z,5.78
2023-02-19T00:46:21.700Z,5.74
2023-02-19T00:48:49.586Z,5.68
2023-02-19T00:51:17.251Z,5.64
2023-02-19T00:53:44.912Z,5.62
2023-02-19T00:56:12.584Z,5.59
2023-02-19T00:58:40.236Z,5.58
2023-02-19T01:01:08.212Z,5.59
2023-02-19T01:03:36.171Z,5.58
2023-02-19T01:06:03.839Z,5.55
2023-02-19T01:08:31.605Z,5.51
2023-02-19T01:10:59.367Z,5.49
2023-02-19T01:13:27.120Z,5.49
2023-02-19T01:15:54.795Z,5.49
2023-02-19T01:18:22.544Z,5.51
2023-02-19T01:20:50.309Z,5.52
2023-02-19T01:23:17.975Z,5.48
2023-02-19T01:25:45.630Z,5.47
2023-02-19T01:28:13.598Z,5.48
2023-02-19T01:30:41.372Z,5.49
2023-02-19T01:33:09.026Z,5.49
2023-02-19T01:35:36.686Z,5.52
2023-02-19T01:38:04.470Z,5.54
2023-02-19T01:40:32.123Z,5.54
2023-02-19T01:42:59.877Z,5.53
2023-02-19T01:45:27.645Z,5.51
2023-02-19T01:47:55.303Z,5.51
2023-02-19T01:50:22.965Z,5.55
2023-02-19T01:52:50.628Z,5.57
2023-02-19T01:55:18.288Z,5.63
2023-02-19T01:57:45.954Z,5.65
2023-02-19T02:00:13.715Z,5.62
2023-02-19T02:02:41.460Z,5.58
2023-02-19T02:05:09.143Z,5.52
2023-02-19T02:07:55.847Z,5.45
2023-02-19T02:10:24.128Z,5.40
2023-02-19T02:12:51.888Z,5.39
2023-02-19T02:15:19.756Z,5.42
2023-02-19T02:17:47.624Z,5.42
2023-02-19T02:20:15.414Z,5.41
2023-02-19T02:22:43.156Z,5.44
2023-02-19T02:25:10.921Z,5.47
2023-02-19T02:27:38.683Z,5.51
2023-02-19T02:30:06.379Z,5.56
2023-02-19T02:32:34.105Z,5.60
2023-02-19T02:35:01.773Z,5.65
2023-02-19T02:37:29.435Z,5.67
2023-02-19T02:39:57.090Z,5.65
2023-02-19T02:42:27.789Z,5.63
2023-02-19T02:45:14.123Z,5.61
2023-02-19T02:47:41.791Z,5.60
2023-02-19T02:50:09.651Z,5.58
2023-02-19T02:52:56.152Z,5.54
2023-02-19T02:55:23.815Z,5.51
2023-02-19T02:57:51.440Z,5.46
2023-02-19T03:00:19.148Z,5.40
2023-02-19T03:02:46.799Z,5.30
2023-02-19T03:05:33.303Z,5.22
2023-02-19T03:08:00.962Z,5.20
2023-02-19T03:10:28.626Z,5.16
2023-02-19T03:13:14.925Z,5.16
2023-02-19T03:16:21.419Z,5.17
2023-02-19T03:19:07.898Z,5.17
2023-02-19T03:21:36.379Z,5.18
2023-02-19T03:24:22.675Z,5.21
2023-02-19T03:26:54.180Z,5.23
2023-02-19T03:29:26.193Z,5.23
2023-02-19T03:31:54.142Z,5.32
2023-02-19T03:34:22.033Z,5.39
2023-02-19T03:36:49.790Z,5.42
2023-02-19T03:39:17.452Z,5.44
2023-02-19T03:41:45.156Z,5.45
2023-02-19T03:44:12.874Z,5.44
2023-02-19T03:46:40.538Z,5.42
2023-02-19T03:49:08.201Z,5.37
2023-02-19T03:51:38.214Z,5.39
2023-02-19T03:54:05.877Z,5.37
2023-02-19T03:56:34.059Z,5.30
2023-02-19T03:59:01.832Z,5.26
2023-02-19T04:01:29.582Z,5.22
2023-02-19T04:03:57.346Z,5.24
2023-02-19T04:06:25.008Z,5.25
2023-02-19T04:08:52.673Z,5.33
2023-02-19T04:11:20.437Z,5.39
2023-02-19T04:13:48.201Z,5.41
2023-02-19T04:16:15.870Z,5.42
2023-02-19T04:18:43.518Z,5.43
2023-02-19T04:21:11.407Z,5.45
2023-02-19T04:23:39.359Z,5.46
2023-02-19T04:26:08.255Z,5.48
2023-02-19T04:28:36.019Z,5.54
2023-02-19T04:31:03.747Z,5.57
2023-02-19T04:33:31.538Z,5.55
2023-02-19T04:35:59.196Z,5.53
2023-02-19T04:38:26.858Z,5.51
2023-02-19T04:40:54.523Z,5.49
2023-02-19T04:43:22.282Z,5.51
2023-02-19T04:45:49.972Z,5.57
2023-02-19T04:48:17.708Z,5.57
2023-02-19T04:50:45.472Z,5.58
2023-02-19T04:53:13.140Z,5.60
2023-02-19T04:55:40.795Z,5.62
2023-02-19T04:58:08.464Z,5.64
2023-02-19T05:00:36.132Z,5.66
2023-02-19T05:03:03.778Z,5.74
2023-02-19T05:05:31.551Z,5.78
2023-02-19T05:07:59.203Z,5.80
2023-02-19T05:10:26.871Z,5.80
2023-02-19T05:12:56.294Z,5.80
2023-02-19T05:15:25.575Z,5.76
2023-02-19T05:17:53.230Z,5.73
2023-02-19T05:20:23.154Z,5.73
2023-02-19T05:22:50.913Z,5.78
2023-02-19T05:25:18.578Z,5.82
2023-02-19T05:27:46.336Z,5.82
2023-02-19T05:30:14.032Z,5.85
2023-02-19T05:32:41.870Z,5.86
2023-02-19T05:35:09.626Z,5.86
2023-02-19T05:37:37.289Z,5.89
2023-02-19T05:40:05.052Z,5.95
2023-02-19T05:42:32.824Z,5.96
2023-02-19T05:45:00.485Z,5.96
2023-02-19T05:47:28.342Z,5.98
2023-02-19T05:49:56.003Z,5.99
2023-02-19T05:52:23.618Z,5.98
2023-02-19T05:54:51.333Z,5.98
2023-02-19T05:57:20.656Z,6.02
2023-02-19T05:59:48.392Z,6.02
2023-02-19T06:02:16.062Z,5.98
2023-02-19T06:04:43.828Z,5.94
2023-02-19T06:07:11.583Z,5.92
2023-02-19T06:09:39.361Z,5.89
2023-02-19T06:12:08.236Z,5.94
2023-02-19T06:14:36.003Z,5.96
2023-02-19T06:17:03.612Z,5.95
2023-02-19T06:19:31.232Z,5.95
2023-02-19T06:21:58.984Z,5.96
2023-02-19T06:24:26.646Z,5.95
2023-02-19T06:26:54.309Z,5.98
2023-02-19T06:29:21.970Z,6.02
2023-02-19T06:31:49.725Z,6.03
2023-02-19T06:34:17.503Z,6.02
2023-02-19T06:36:45.266Z,6.00
2023-02-19T06:39:12.930Z,5.99
2023-02-19T06:41:40.593Z,6.01
2023-02-19T06:44:08.355Z,6.05
2023-02-19T06:46:36.358Z,6.06
2023-02-19T06:49:04.087Z,6.05
2023-02-19T06:51:33.013Z,6.04
2023-02-19T06:54:02.485Z,6.01
2023-02-19T06:56:30.249Z,6.05
2023-02-19T06:58:58.214Z,6.06
2023-02-19T07:01:25.885Z,6.06
2023-02-19T07:03:53.680Z,6.03
2023-02-19T07:06:21.404Z,6.02
2023-02-19T07:08:49.181Z,6.05
2023-02-19T07:11:17.235Z,6.07
2023-02-19T07:13:45.001Z,6.09
2023-02-19T07:16:12.684Z,6.08
2023-02-19T07:18:40.425Z,6.08
2023-02-19T07:21:08.369Z,6.09
2023-02-19T07:23:36.258Z,6.11
2023-02-19T07:26:03.923Z,6.15
2023-02-19T07:28:31.597Z,6.15
2023-02-19T07:30:59.268Z,6.14
2023-02-19T07:33:27.009Z,6.14
2023-02-19T07:35:54.772Z,6.14
2023-02-19T07:38:22.445Z,6.20
2023-02-19T07:40:50.098Z,6.22
2023-02-19T07:43:17.759Z,6.22
2023-02-19T07:45:45.434Z,6.21
2023-02-19T07:48:13.092Z,6.21
2023-02-19T07:50:40.949Z,6.21
2023-02-19T07:53:08.612Z,6.25
2023-02-19T07:55:36.380Z,6.30
2023-02-19T07:58:06.123Z,6.32
2023-02-19T08:00:34.068Z,6.34
2023-02-19T08:03:01.766Z,6.34
2023-02-19T08:05:30.811Z,6.35
2023-02-19T08:07:58.531Z,6.42
2023-02-19T08:10:45.183Z,6.45
2023-02-19T08:13:28.200Z,6.45
2023-02-19T08:16:01.674Z,6.47
2023-02-19T08:18:35.325Z,6.49
2023-02-19T08:21:03.072Z,6.51
2023-02-19T08:23:30.827Z,6.55
2023-02-19T08:25:58.591Z,6.57
2023-02-19T08:28:26.364Z,6.55
2023-02-19T08:30:54.134Z,6.49
2023-02-19T08:33:21.985Z,6.42
2023-02-19T08:35:49.753Z,6.38
2023-02-19T08:38:17.513Z,6.38
2023-02-19T08:40:45.994Z,6.37
2023-02-19T08:43:13.655Z,6.34
2023-02-19T08:45:41.382Z,6.29
2023-02-19T08:48:09.285Z,6.28
2023-02-19T08:50:36.945Z,6.28
2023-02-19T08:53:04.606Z,6.31
2023-02-19T08:55:32.270Z,6.26
2023-02-19T08:58:00.132Z,6.18
2023-02-19T09:00:28.101Z,6.08
2023-02-19T09:02:55.763Z,6.06
2023-02-19T09:05:23.527Z,6.08
2023-02-19T09:07:51.190Z,6.06
2023-02-19T09:10:18.849Z,6.03
2023-02-19T09:12:46.511Z,6.02
2023-02-19T09:15:14.318Z,6.04
2023-02-19T09:17:42.140Z,6.06
2023-02-19T09:20:10.727Z,6.00
2023-02-19T09:22:38.490Z,5.89
2023-02-19T09:25:06.257Z,5.84
2023-02-19T09:27:34.020Z,5.86
2023-02-19T09:30:01.813Z,5.90
2023-02-19T09:32:29.548Z,5.91
2023-02-19T09:34:57.315Z,5.90
2023-02-19T09:37:24.973Z,5.83
2023-02-19T09:39:52.636Z,5.76
2023-02-19T09:42:20.407Z,5.68
2023-02-19T09:44:48.475Z,5.56
2023-02-19T09:47:16.239Z,5.45
2023-02-19T09:49:50.049Z,5.42
2023-02-19T09:52:18.524Z,5.43
2023-02-19T09:54:46.292Z,5.44
2023-02-19T09:57:13.945Z,5.44
2023-02-19T09:59:42.035Z,5.42
2023-02-19T10:02:09.676Z,5.38
2023-02-19T10:04:37.441Z,5.34
2023-02-19T10:07:05.101Z,5.29
2023-02-19T10:09:32.967Z,5.20
2023-02-19T10:12:00.740Z,5.13
2023-02-19T10:14:28.575Z,5.09
2023-02-19T10:16:56.466Z,5.12
2023-02-19T10:19:24.125Z,5.20
2023-02-19T10:21:51.782Z,5.21
2023-02-19T10:24:19.447Z,5.13
2023-02-19T10:26:47.108Z,5.09
2023-02-19T10:29:14.781Z,5.08
2023-02-19T10:31:42.504Z,5.14
2023-02-19T10:34:10.302Z,5.21
2023-02-19T10:36:37.963Z,5.26
2023-02-19T10:39:05.624Z,5.24
2023-02-19T10:41:33.285Z,5.19
2023-02-19T10:44:00.956Z,5.17
2023-02-19T10:46:28.639Z,5.18
2023-02-19T10:48:56.479Z,5.13
2023-02-19T10:51:25.570Z,5.04
2023-02-19T10:53:53.232Z,4.88
2023-02-19T10:56:20.901Z,4.73
2023-02-19T10:58:48.565Z,4.66
2023-02-19T11:01:16.328Z,4.52
2023-02-19T11:03:44.083Z,4.39
2023-02-19T11:06:11.853Z,4.28
2023-02-19T11:08:39.610Z,4.19
2023-02-19T11:11:07.275Z,4.07
2023-02-19T11:13:38.140Z,3.96
2023-02-19T11:16:05.894Z,3.91
2023-02-19T11:18:35.078Z,3.90
2023-02-19T11:21:02.749Z,3.84
2023-02-19T11:23:30.501Z,3.80
2023-02-19T11:25:58.258Z,3.77
2023-02-19T11:28:25.919Z,3.76
2023-02-19T11:30:53.581Z,3.79
2023-02-19T11:33:24.027Z,3.75
2023-02-19T11:35:51.772Z,3.70
2023-02-19T11:38:19.850Z,3.69
2023-02-19T11:40:47.712Z,3.71
2023-02-19T11:43:15.478Z,3.75
2023-02-19T11:45:43.139Z,3.66
2023-02-19T11:48:10.919Z,3.53
2023-02-19T11:50:38.568Z,3.47
2023-02-19T11:53:06.231Z,3.44
2023-02-19T11:55:33.882Z,3.36
2023-02-19T11:58:01.549Z,3.32
2023-02-19T12:00:29.315Z,3.33
2023-02-19T12:02:57.793Z,3.38
2023-02-19T12:05:27.053Z,3.43
2023-02-19T12:07:55.680Z,3.39
2023-02-19T12:10:23.336Z,3.37
2023-02-19T12:12:51.717Z,3.41
2023-02-19T12:15:20.402Z,3.51
2023-02-19T12:17:48.068Z,3.61
2023-02-19T12:20:15.825Z,3.70
2023-02-19T12:22:43.491Z,3.76
2023-02-19T12:25:11.152Z,3.83
2023-02-19T12:27:38.914Z,3.85
2023-02-19T12:30:06.582Z,3.86
2023-02-19T12:32:34.544Z,3.88
2023-02-19T12:35:02.212Z,3.92
2023-02-19T12:37:29.866Z,3.91
2023-02-19T12:39:57.534Z,3.92
2023-02-19T12:42:25.189Z,3.93
2023-02-19T12:44:53.054Z,3.96
2023-02-19T12:47:20.818Z,3.97
2023-02-19T12:49:48.479Z,3.99
2023-02-19T12:52:16.244Z,4.02
2023-02-19T12:54:43.911Z,4.08
2023-02-19T12:57:11.678Z,4.15
2023-02-19T12:59:39.336Z,4.21
2023-02-19T13:02:07.009Z,4.26
2023-02-19T13:04:34.762Z,4.31
2023-02-19T13:07:02.625Z,4.32
2023-02-19T13:09:30.638Z,4.32
2023-02-19T13:11:58.468Z,4.33
2023-02-19T13:14:26.233Z,4.37
2023-02-19T13:16:54.204Z,4.37
2023-02-19T13:19:21.953Z,4.34
2023-02-19T13:22:08.367Z,4.30
2023-02-19T13:24:36.132Z,4.27
2023-02-19T13:27:04.301Z,4.25
2023-02-19T13:29:31.964Z,4.24
2023-02-19T13:31:59.783Z,4.22
2023-02-19T13:34:27.590Z,4.19
2023-02-19T13:36:55.254Z,4.17
2023-02-19T13:39:23.014Z,4.13
2023-02-19T13:41:50.780Z,4.13
2023-02-19T13:44:18.442Z,4.13
2023-02-19T13:46:46.107Z,4.14
2023-02-19T13:49:13.867Z,4.17
2023-02-19T13:51:41.633Z,4.19
2023-02-19T13:54:09.291Z,4.19
2023-02-19T13:56:36.953Z,4.21
2023-02-19T13:59:05.843Z,4.20
2023-02-19T14:01:33.518Z,4.17
2023-02-19T14:04:01.268Z,4.17
2023-02-19T14:06:28.933Z,4.24
2023-02-19T14:08:57.195Z,4.28
2023-02-19T14:11:24.910Z,4.27
2023-02-19T14:13:52.733Z,4.27
2023-02-19T14:16:20.396Z,4.27
2023-02-19T14:18:50.617Z,4.27
2023-02-19T14:21:18.382Z,4.31
2023-02-19T14:23:46.004Z,4.33
2023-02-19T14:26:13.701Z,4.31
2023-02-19T14:28:41.368Z,4.30
2023-02-19T14:31:09.272Z,4.29
2023-02-19T14:33:37.810Z,4.30
2023-02-19T14:36:06.207Z,4.33
2023-02-19T14:38:33.956Z,4.33
2023-02-19T14:41:01.721Z,4.31
2023-02-19T14:43:29.483Z,4.29
2023-02-19T14:45:57.297Z,4.28
2023-02-19T14:48:25.251Z,4.28
2023-02-19T14:50:52.979Z,4.32
2023-02-19T14:53:20.744Z,4.34
2023-02-19T14:55:48.511Z,4.32
2023-02-19T14:58:16.174Z,4.30
2023-02-19T15:00:44.028Z,4.26
2023-02-19T15:03:11.695Z,4.24
2023-02-19T15:05:39.470Z,4.25
2023-02-19T15:08:07.224Z,4.23
2023-02-19T15:10:34.884Z,4.16
2023-02-19T15:13:04.800Z,4.10
2023-02-19T15:15:33.182Z,4.08
2023-02-19T15:18:00.872Z,4.04
2023-02-19T15:20:28.600Z,4.00
2023-02-19T15:22:56.368Z,4.03
2023-02-19T15:25:24.029Z,4.05
2023-02-19T15:27:51.693Z,4.01
2023-02-19T15:30:19.589Z,3.99
2023-02-19T15:32:47.323Z,3.98
2023-02-19T15:35:14.986Z,3.94
2023-02-19T15:37:42.648Z,3.91
2023-02-19T15:40:10.323Z,3.92
2023-02-19T15:42:38.382Z,3.94
2023-02-19T15:45:06.088Z,3.92
2023-02-19T15:47:33.806Z,3.87
2023-02-19T15:50:01.636Z,3.84
2023-02-19T15:52:29.439Z,3.80
2023-02-19T15:54:57.201Z,3.76
2023-02-19T15:57:24.865Z,3.72
2023-02-19T15:59:52.528Z,3.75
2023-02-19T16:02:20.190Z,3.72
2023-02-19T16:04:47.847Z,3.68
2023-02-19T16:07:15.514Z,3.65
2023-02-19T16:09:43.273Z,3.63
2023-02-19T16:12:10.945Z,3.60
2023-02-19T16:14:38.906Z,3.58
2023-02-19T16:17:07.691Z,3.56
2023-02-19T16:19:35.456Z,3.54
2023-02-19T16:22:03.220Z,3.57
2023-02-19T16:24:30.887Z,3.56
2023-02-19T16:26:59.056Z,3.52
2023-02-19T16:29:26.714Z,3.50
2023-02-19T16:31:54.522Z,3.49
2023-02-19T16:34:22.448Z,3.49
2023-02-19T16:36:50.315Z,3.45
2023-02-19T16:39:18.195Z,3.46
2023-02-19T16:41:46.767Z,3.47
2023-02-19T16:44:14.424Z,3.44
2023-02-19T16:46:42.088Z,3.41
2023-02-19T16:49:10.372Z,3.40
2023-02-19T16:51:38.023Z,3.40
2023-02-19T16:54:06.094Z,3.42
2023-02-19T16:56:33.966Z,3.41
2023-02-19T16:59:01.727Z,3.40
2023-02-19T17:01:29.500Z,3.42
2023-02-19T17:03:57.258Z,3.45
2023-02-19T17:06:25.021Z,3.46
2023-02-19T17:08:52.781Z,3.43
2023-02-19T17:11:20.442Z,3.41
2023-02-19T17:13:48.310Z,3.39
2023-02-19T17:16:16.105Z,3.36
2023-02-19T17:18:43.942Z,3.35
2023-02-19T17:21:11.954Z,3.41
2023-02-19T17:23:39.882Z,3.42
2023-02-19T17:26:07.552Z,3.43
2023-02-19T17:28:35.302Z,3.42
2023-02-19T17:31:02.976Z,3.39
2023-02-19T17:33:30.735Z,3.37
2023-02-19T17:35:58.388Z,3.35
2023-02-19T17:38:26.053Z,3.36
2023-02-19T17:40:53.711Z,3.38
2023-02-19T17:43:21.371Z,3.36
2023-02-19T17:45:49.273Z,3.33
2023-02-19T17:48:17.307Z,3.29
2023-02-19T17:50:45.077Z,3.27
2023-02-19T17:53:12.834Z,3.24
2023-02-19T17:55:40.498Z,3.22
2023-02-19T17:58:08.159Z,3.25
2023-02-19T18:00:36.747Z,3.28
2023-02-19T18:03:04.408Z,3.26
2023-02-19T18:05:32.191Z,3.25
2023-02-19T18:08:00.250Z,3.24
2023-02-19T18:10:27.912Z,3.20
2023-02-19T18:12:55.672Z,3.16
2023-02-19T18:15:23.428Z,3.14
2023-02-19T18:17:51.211Z,3.13
2023-02-19T18:20:19.061Z,3.17
2023-02-19T18:22:46.736Z,3.20
2023-02-19T18:25:14.488Z,3.19
2023-02-19T18:27:42.151Z,3.20
2023-02-19T18:30:09.847Z,3.21
2023-02-19T18:32:37.575Z,3.21
2023-02-19T18:35:05.353Z,3.20
2023-02-19T18:37:34.127Z,3.19
2023-02-19T18:40:01.896Z,3.17
2023-02-19T18:42:29.658Z,3.21
2023-02-19T18:44:57.326Z,3.22
2023-02-19T18:47:28.049Z,3.19
2023-02-19T18:49:55.714Z,3.19
2023-02-19T18:52:25.034Z,3.17
2023-02-19T18:54:52.877Z,3.17
2023-02-19T18:57:20.505Z,3.16
2023-02-19T18:59:48.206Z,3.14
2023-02-19T19:02:15.977Z,3.11
2023-02-19T19:04:43.734Z,3.12
2023-02-19T19:07:11.503Z,3.17
2023-02-19T19:09:39.265Z,3.16
2023-02-19T19:12:07.022Z,3.13
2023-02-19T19:14:34.890Z,3.13
2023-02-19T19:17:02.658Z,3.12
2023-02-19T19:19:30.729Z,3.11
2023-02-19T19:21:58.388Z,3.12
2023-02-19T19:24:26.068Z,3.11
2023-02-19T19:26:53.777Z,3.10
2023-02-19T19:29:22.304Z,3.15
2023-02-19T19:31:50.386Z,3.16
2023-02-19T19:34:18.132Z,3.14
2023-02-19T19:36:45.895Z,3.12
2023-02-19T19:39:13.656Z,3.09
2023-02-19T19:41:41.419Z,3.05
2023-02-19T19:44:09.086Z,3.01
2023-02-19T19:46:36.881Z,2.95
2023-02-19T19:49:04.710Z,2.93
2023-02-19T19:51:32.486Z,2.95
2023-02-19T19:54:01.181Z,2.94
2023-02-19T19:56:28.821Z,2.91
2023-02-19T19:58:56.485Z,2.85
2023-02-19T20:01:24.356Z,2.82
2023-02-19T20:03:52.221Z,2.79
2023-02-19T20:06:19.882Z,2.75
2023-02-19T20:08:47.744Z,2.68
2023-02-19T20:11:15.406Z,2.67
2023-02-19T20:13:43.173Z,2.69
2023-02-19T20:16:12.537Z,2.65
2023-02-19T20:18:40.270Z,2.60
2023-02-19T20:21:08.003Z,2.57
2023-02-19T20:23:35.759Z,2.52
2023-02-19T20:26:05.573Z,2.46
2023-02-19T20:28:33.187Z,2.43
2023-02-19T20:31:01.161Z,2.42
2023-02-19T20:33:28.762Z,2.46
2023-02-19T20:35:57.248Z,2.45
2023-02-19T20:38:25.008Z,2.43
2023-02-19T20:40:52.770Z,2.44
2023-02-19T20:43:20.581Z,2.44
2023-02-19T20:45:48.611Z,2.44
2023-02-19T20:48:16.272Z,2.41
2023-02-19T20:50:44.032Z,2.35
2023-02-19T20:53:11.807Z,2.34
2023-02-19T20:55:39.666Z,2.37
2023-02-19T20:58:07.429Z,2.36
2023-02-19T21:00:35.195Z,2.34
2023-02-19T21:03:03.045Z,2.30
2023-02-19T21:05:30.920Z,2.29
2023-02-19T21:07:58.583Z,2.27
2023-02-19T21:10:26.247Z,2.24
2023-02-19T21:12:54.661Z,2.22
2023-02-19T21:15:22.296Z,2.24
2023-02-19T21:17:50.049Z,2.26
2023-02-19T21:20:21.090Z,2.23
2023-02-19T21:22:48.752Z,2.17
2023-02-19T21:25:16.411Z,2.15
2023-02-19T21:27:44.177Z,2.11
2023-02-19T21:30:11.924Z,2.07
2023-02-19T21:32:39.723Z,2.04
2023-02-19T21:35:07.472Z,2.06
2023-02-19T21:37:35.643Z,2.06
2023-02-19T21:40:03.408Z,2.04
2023-02-19T21:42:31.375Z,2.01
2023-02-19T21:44:59.142Z,2.01
2023-02-19T21:47:29.259Z,1.98
2023-02-19T21:49:56.920Z,1.96
2023-02-19T21:52:24.579Z,1.93
2023-02-19T21:54:52.344Z,1.92
2023-02-19T21:57:20.018Z,1.94
2023-02-19T21:59:47.771Z,1.91
2023-02-19T22:02:15.531Z,1.89
2023-02-19T22:04:43.295Z,1.88
2023-02-19T22:07:11.161Z,1.87
2023-02-19T22:09:39.539Z,1.86
2023-02-19T22:12:07.302Z,1.83
2023-02-19T22:14:34.973Z,1.81
2023-02-19T22:17:02.728Z,1.80
2023-02-19T22:19:30.357Z,1.84
2023-02-19T22:21:58.057Z,1.85
2023-02-19T22:24:25.713Z,1.85
2023-02-19T22:26:53.378Z,1.84
2023-02-19T22:29:21.140Z,1.81
2023-02-19T22:31:48.948Z,1.81
2023-02-19T22:34:16.772Z,1.78
2023-02-19T22:36:44.532Z,1.73
2023-02-19T22:39:12.297Z,1.72
2023-02-19T22:41:39.958Z,1.72
2023-02-19T22:44:07.620Z,1.70
2023-02-19T22:46:35.287Z,1.69
2023-02-19T22:49:03.157Z,1.67
2023-02-19T22:51:30.811Z,1.63
2023-02-19T22:53:58.469Z,1.59
2023-02-19T22:56:26.212Z,1.53
2023-02-19T22:58:53.895Z,1.54
2023-02-19T23:01:21.579Z,1.55
2023-02-19T23:03:49.405Z,1.51
2023-02-19T23:06:17.196Z,1.49
2023-02-19T23:08:44.961Z,1.46
2023-02-19T23:11:12.625Z,1.43
2023-02-19T23:13:40.387Z,1.40
2023-02-19T23:16:08.045Z,1.36
2023-02-19T23:18:35.710Z,1.36
2023-02-19T23:21:03.368Z,1.37
2023-02-19T23:23:31.036Z,1.35
2023-02-19T23:25:58.695Z,1.32
2023-02-19T23:28:26.355Z,1.30
2023-02-19T23:30:54.186Z,1.25
2023-02-19T23:33:21.986Z,1.22
2023-02-19T23:35:49.619Z,1.22
2023-02-19T23:38:17.309Z,1.21
2023-02-19T23:40:45.683Z,1.24
2023-02-19T23:43:13.341Z,1.26
2023-02-19T23:45:41.060Z,1.22
2023-02-19T23:48:08.871Z,1.18
2023-02-19T23:50:36.530Z,1.15
2023-02-19T23:53:04.190Z,1.12
2023-02-19T23:55:31.853Z,1.08
2023-02-19T23:57:59.616Z,1.08
